Time;durP1;ratioP1;P1;durP2;ratioP2;P2;SDS_P1;SDS_P2;PMS_P1;PMS_P2;Temp;Humidity;BMP_temperature;BMP_pressure;BME280_temperature;BME280_humidity;BME280_pressure;Samples;Min_cycle;Max_cycle;Signal;HPM_P1;HPM_P2
2021/07/18 00:00:11;;;;;;;10.20;5.97;;;;;;;;;;5041255;28;20127;-73
2021/07/18 00:02:37;;;;;;;9.80;6.30;;;;;;;;;;5041892;28;20067;-73
2021/07/18 00:05:04;;;;;;;8.63;5.13;;;;;;;;;;5041355;28;20072;-73
2021/07/18 00:07:30;;;;;;;9.27;5.88;;;;;;;;;;5041423;28;20085;-73
2021/07/18 00:09:56;;;;;;;12.82;6.00;;;;;;;;;;5041579;28;20072;-73
2021/07/18 00:12:22;;;;;;;11.70;5.72;;;;;;;;;;5043006;28;20059;-73
2021/07/18 00:14:49;;;;;;;25.70;5.68;;;;;;;;;;5040869;28;20091;-74
2021/07/18 00:17:15;;;;;;;7.25;4.80;;;;;;;;;;5036436;28;20063;-73
2021/07/18 00:19:42;;;;;;;10.18;5.53;;;;;;;;;;5041734;28;20041;-73
2021/07/18 00:22:08;;;;;;;6.50;4.32;;;;;;;;;;5041181;28;20111;-73
2021/07/18 00:24:34;;;;;;;8.57;5.25;;;;;;;;;;5039229;28;20052;-73
2021/07/18 00:27:00;;;;;;;8.52;5.03;;;;;;;;;;5043270;28;20047;-73
2021/07/18 00:29:27;;;;;;;12.32;6.18;;;;;;;;;;5042342;28;20037;-73
2021/07/18 00:31:53;;;;;;;10.65;5.07;;;;;;;;;;5041128;28;20042;-73
2021/07/18 00:34:20;;;;;;;15.70;5.95;;;;;;;;;;5045758;28;20057;-73
2021/07/18 00:36:47;;;;;;;9.55;4.95;;;;;;;;;;5042077;28;20069;-73
2021/07/18 00:39:15;;;;;;;9.55;3.33;;;;;;;;;;5043257;28;20048;-73
2021/07/18 00:41:41;;;;;;;5.55;2.65;;;;;;;;;;5041075;28;20515;-73
2021/07/18 00:44:08;;;;;;;8.55;3.20;;;;;;;;;;5043147;28;20501;-73
2021/07/18 00:46:35;;;;;;;6.82;3.15;;;;;;;;;;5044924;28;20175;-73
2021/07/18 00:49:01;;;;;;;8.00;4.00;;;;;;;;;;5045840;28;20106;-73
2021/07/18 00:51:27;;;;;;;13.85;4.43;;;;;;;;;;5045702;28;20060;-73
2021/07/18 00:53:54;;;;;;;7.70;4.43;;;;;;;;;;5045373;28;20206;-73
2021/07/18 00:56:20;;;;;;;16.85;4.20;;;;;;;;;;5041888;28;20078;-73
2021/07/18 00:58:51;;;;;;;6.80;4.57;;;;;;;;;;5043430;28;20132;-73
2021/07/18 01:01:17;;;;;;;10.20;5.78;;;;;;;;;;5044446;28;20037;-73
2021/07/18 01:03:43;;;;;;;11.32;4.78;;;;;;;;;;5042863;28;20120;-73
2021/07/18 01:06:09;;;;;;;9.18;5.25;;;;;;;;;;5045561;28;20460;-73
2021/07/18 01:08:35;;;;;;;9.52;5.00;;;;;;;;;;5038483;28;20084;-73
2021/07/18 01:11:02;;;;;;;10.80;5.97;;;;;;;;;;5045855;28;20125;-73
2021/07/18 01:13:28;;;;;;;13.30;7.28;;;;;;;;;;5044020;28;20049;-73
2021/07/18 01:15:54;;;;;;;16.00;8.40;;;;;;;;;;5043020;28;20041;-73
2021/07/18 01:18:20;;;;;;;16.25;7.85;;;;;;;;;;5042439;28;20465;-73
2021/07/18 01:20:47;;;;;;;14.35;9.20;;;;;;;;;;5043588;28;20095;-73
2021/07/18 01:23:14;;;;;;;18.45;8.95;;;;;;;;;;5044713;28;20069;-73
2021/07/18 01:25:40;;;;;;;21.90;10.25;;;;;;;;;;5043116;28;20060;-73
2021/07/18 01:28:07;;;;;;;19.90;9.55;;;;;;;;;;5043970;28;20045;-73
2021/07/18 01:30:34;;;;;;;19.35;9.20;;;;;;;;;;5044778;28;20143;-73
2021/07/18 01:33:01;;;;;;;18.25;9.32;;;;;;;;;;5044136;28;20044;-73
2021/07/18 01:35:27;;;;;;;15.65;9.20;;;;;;;;;;5043989;28;20037;-73
2021/07/18 01:37:54;;;;;;;18.65;9.20;;;;;;;;;;5040941;28;20049;-73
2021/07/18 01:40:20;;;;;;;13.15;9.68;;;;;;;;;;5042871;28;20049;-73
2021/07/18 01:42:47;;;;;;;17.80;9.75;;;;;;;;;;5040234;28;20116;-73
2021/07/18 01:45:13;;;;;;;15.98;9.15;;;;;;;;;;5045406;28;20127;-73
2021/07/18 01:47:41;;;;;;;16.48;9.13;;;;;;;;;;5045082;28;20370;-73
2021/07/18 01:50:07;;;;;;;18.95;9.40;;;;;;;;;;5037673;28;20041;-73
2021/07/18 01:52:33;;;;;;;16.85;9.43;;;;;;;;;;5046657;28;20037;-73
2021/07/18 01:55:00;;;;;;;18.58;9.93;;;;;;;;;;5040318;28;20044;-73
2021/07/18 01:57:26;;;;;;;16.58;8.95;;;;;;;;;;5042249;28;20063;-73
2021/07/18 01:59:52;;;;;;;16.25;9.45;;;;;;;;;;5043520;28;20107;-73
2021/07/18 02:02:19;;;;;;;14.05;8.90;;;;;;;;;;5040011;28;20049;-73
2021/07/18 02:04:47;;;;;;;18.50;8.98;;;;;;;;;;5044177;28;20219;-73
2021/07/18 02:07:13;;;;;;;19.80;10.45;;;;;;;;;;5041772;28;20032;-73
2021/07/18 02:09:39;;;;;;;17.65;9.48;;;;;;;;;;5041661;28;20045;-73
2021/07/18 02:12:07;;;;;;;22.85;10.30;;;;;;;;;;5044476;28;20063;-73
2021/07/18 02:14:35;;;;;;;13.65;9.48;;;;;;;;;;5041548;28;20452;-73
2021/07/18 02:17:01;;;;;;;16.98;9.43;;;;;;;;;;5044912;28;20477;-73
2021/07/18 02:19:33;;;;;;;19.63;10.23;;;;;;;;;;5045716;28;20045;-73
2021/07/18 02:22:00;;;;;;;16.40;8.98;;;;;;;;;;5042614;28;20045;-73
2021/07/18 02:24:27;;;;;;;14.60;8.85;;;;;;;;;;5042145;28;20430;-73
2021/07/18 02:26:53;;;;;;;16.02;8.65;;;;;;;;;;5043270;28;20124;-73
2021/07/18 02:29:20;;;;;;;13.10;8.07;;;;;;;;;;5044640;28;20533;-73
2021/07/18 02:31:46;;;;;;;12.05;8.30;;;;;;;;;;5042971;28;20689;-73
2021/07/18 02:34:12;;;;;;;15.90;9.20;;;;;;;;;;5039265;28;20060;-73
2021/07/18 02:36:38;;;;;;;15.00;8.30;;;;;;;;;;5039421;28;20042;-73
2021/07/18 02:39:05;;;;;;;13.82;8.45;;;;;;;;;;5040331;28;20124;-73
2021/07/18 02:41:34;;;;;;;13.38;8.18;;;;;;;;;;5036763;28;20408;-73
2021/07/18 02:44:01;;;;;;;15.27;6.93;;;;;;;;;;5040076;28;20064;-73
2021/07/18 02:46:27;;;;;;;15.20;7.57;;;;;;;;;;5042578;28;20032;-73
2021/07/18 02:48:53;;;;;;;14.95;7.40;;;;;;;;;;5039072;28;20117;-73
2021/07/18 02:51:20;;;;;;;12.00;7.93;;;;;;;;;;5041751;28;20056;-73
2021/07/18 02:53:46;;;;;;;16.17;8.32;;;;;;;;;;5040221;28;20048;-73
2021/07/18 02:56:12;;;;;;;12.10;8.20;;;;;;;;;;5042099;28;20508;-73
2021/07/18 02:58:38;;;;;;;13.55;7.22;;;;;;;;;;5039635;28;20068;-73
2021/07/18 03:01:04;;;;;;;9.50;6.22;;;;;;;;;;5042783;28;20045;-73
2021/07/18 03:03:30;;;;;;;12.38;6.57;;;;;;;;;;5042937;28;20049;-73
2021/07/18 03:05:57;;;;;;;10.80;7.13;;;;;;;;;;5039210;28;20381;-73
2021/07/18 03:08:23;;;;;;;11.43;6.50;;;;;;;;;;5035013;28;20051;-73
2021/07/18 03:10:49;;;;;;;10.90;6.80;;;;;;;;;;5041805;28;20047;-73
2021/07/18 03:13:15;;;;;;;12.85;7.30;;;;;;;;;;5039023;28;20696;-73
2021/07/18 03:15:41;;;;;;;10.95;6.72;;;;;;;;;;5042804;28;20041;-73
2021/07/18 03:18:08;;;;;;;14.60;7.47;;;;;;;;;;5041563;28;20119;-73
2021/07/18 03:20:35;;;;;;;12.55;7.32;;;;;;;;;;5041664;28;20404;-73
2021/07/18 03:23:02;;;;;;;12.93;8.25;;;;;;;;;;5042325;28;20052;-73
2021/07/18 03:25:28;;;;;;;12.55;7.47;;;;;;;;;;5041987;28;20530;-73
2021/07/18 03:27:54;;;;;;;11.80;6.43;;;;;;;;;;5043777;28;20056;-73
2021/07/18 03:30:21;;;;;;;11.95;6.13;;;;;;;;;;5038364;28;20547;-73
2021/07/18 03:32:47;;;;;;;11.85;7.68;;;;;;;;;;5043049;28;20124;-73
2021/07/18 03:35:14;;;;;;;10.30;7.18;;;;;;;;;;5038301;28;20523;-73
2021/07/18 03:37:41;;;;;;;12.80;7.70;;;;;;;;;;5040184;28;20044;-73
2021/07/18 03:40:09;;;;;;;14.70;7.15;;;;;;;;;;5039264;28;20037;-73
2021/07/18 03:42:35;;;;;;;12.60;7.22;;;;;;;;;;5053079;28;20083;-73
2021/07/18 03:45:02;;;;;;;11.38;7.78;;;;;;;;;;5038600;28;20487;-73
2021/07/18 03:47:28;;;;;;;13.43;7.68;;;;;;;;;;5041333;28;20045;-73
2021/07/18 03:49:54;;;;;;;19.15;8.73;;;;;;;;;;5042744;28;20091;-73
2021/07/18 03:52:20;;;;;;;15.93;8.57;;;;;;;;;;5040205;28;20049;-74
2021/07/18 03:54:46;;;;;;;14.50;8.20;;;;;;;;;;5038498;28;20092;-73
2021/07/18 03:57:13;;;;;;;12.15;8.10;;;;;;;;;;5035804;28;20123;-73
2021/07/18 03:59:39;;;;;;;12.38;8.55;;;;;;;;;;5041150;28;20098;-73
2021/07/18 04:02:05;;;;;;;13.43;8.93;;;;;;;;;;5043058;28;20120;-73
2021/07/18 04:04:34;;;;;;;14.02;8.70;;;;;;;;;;5044773;28;20072;-73
2021/07/18 04:07:00;;;;;;;14.52;8.13;;;;;;;;;;5047298;28;20048;-73
2021/07/18 04:09:27;;;;;;;13.90;8.88;;;;;;;;;;5046534;28;20040;-73
2021/07/18 04:11:53;;;;;;;12.52;8.95;;;;;;;;;;5045750;28;20045;-73
2021/07/18 04:14:19;;;;;;;12.57;7.57;;;;;;;;;;5043319;28;20068;-73
2021/07/18 04:16:45;;;;;;;8.93;7.15;;;;;;;;;;5044470;28;20041;-73
2021/07/18 04:19:11;;;;;;;10.52;6.72;;;;;;;;;;5044061;28;20038;-73
2021/07/18 04:21:38;;;;;;;9.27;6.35;;;;;;;;;;5046650;28;20127;-73
2021/07/18 04:24:05;;;;;;;8.95;5.75;;;;;;;;;;5047431;28;20058;-73
2021/07/18 04:26:31;;;;;;;9.70;5.90;;;;;;;;;;5047626;28;20047;-73
2021/07/18 04:28:57;;;;;;;10.32;7.05;;;;;;;;;;5043745;28;20056;-73
2021/07/18 04:31:23;;;;;;;11.35;6.82;;;;;;;;;;5043650;28;20421;-73
2021/07/18 04:33:50;;;;;;;10.60;7.15;;;;;;;;;;5045692;28;20055;-73
2021/07/18 04:36:17;;;;;;;14.63;7.90;;;;;;;;;;5043083;28;20044;-73
2021/07/18 04:38:43;;;;;;;18.50;8.82;;;;;;;;;;5040769;28;20163;-73
2021/07/18 04:41:09;;;;;;;16.23;8.80;;;;;;;;;;5043324;28;20036;-73
2021/07/18 04:43:36;;;;;;;17.80;10.48;;;;;;;;;;5044157;28;20116;-73
2021/07/18 04:46:03;;;;;;;15.02;9.07;;;;;;;;;;5039603;28;20535;-73
2021/07/18 04:48:30;;;;;;;15.95;9.40;;;;;;;;;;5046372;28;20053;-73
2021/07/18 04:50:56;;;;;;;17.67;10.40;;;;;;;;;;5046818;28;20078;-73
2021/07/18 04:53:22;;;;;;;20.08;10.82;;;;;;;;;;5045914;28;20084;-73
2021/07/18 04:55:48;;;;;;;16.13;10.68;;;;;;;;;;5045238;28;20037;-73
2021/07/18 04:58:15;;;;;;;17.77;10.43;;;;;;;;;;5045569;28;20090;-74
2021/07/18 05:00:41;;;;;;;14.18;9.43;;;;;;;;;;5042123;28;20076;-73
2021/07/18 05:03:07;;;;;;;15.98;9.65;;;;;;;;;;5044144;28;20063;-71
2021/07/18 05:05:33;;;;;;;13.05;9.35;;;;;;;;;;5042108;28;20059;-71
2021/07/18 05:08:00;;;;;;;16.52;9.68;;;;;;;;;;5041258;28;20453;-71
2021/07/18 05:10:26;;;;;;;15.30;9.70;;;;;;;;;;5041577;28;20084;-71
2021/07/18 05:12:53;;;;;;;16.45;9.18;;;;;;;;;;5039440;28;20558;-71
2021/07/18 05:15:21;;;;;;;18.05;10.10;;;;;;;;;;5043434;28;20033;-71
2021/07/18 05:17:47;;;;;;;15.25;9.50;;;;;;;;;;5047318;28;20048;-72
2021/07/18 05:20:14;;;;;;;19.20;10.63;;;;;;;;;;5046581;28;20047;-71
2021/07/18 05:22:40;;;;;;;17.77;10.60;;;;;;;;;;5049787;28;20037;-72
2021/07/18 05:25:08;;;;;;;21.67;11.32;;;;;;;;;;5043477;28;20060;-72
2021/07/18 05:27:34;;;;;;;20.70;10.07;;;;;;;;;;5046152;28;20170;-71
2021/07/18 05:30:00;;;;;;;15.38;10.77;;;;;;;;;;5038794;28;20065;-71
2021/07/18 05:32:26;;;;;;;15.20;10.75;;;;;;;;;;5037459;28;20033;-72
2021/07/18 05:34:53;;;;;;;17.50;10.32;;;;;;;;;;5041108;28;20094;-72
2021/07/18 05:37:19;;;;;;;20.85;10.60;;;;;;;;;;5038665;28;20492;-71
2021/07/18 05:39:45;;;;;;;17.42;10.70;;;;;;;;;;5039708;28;20041;-71
2021/07/18 05:42:12;;;;;;;19.50;10.70;;;;;;;;;;5042603;28;20060;-74
2021/07/18 05:44:38;;;;;;;17.67;10.40;;;;;;;;;;5038970;28;20056;-78
2021/07/18 05:47:05;;;;;;;15.57;10.05;;;;;;;;;;5039787;28;20052;-77
2021/07/18 05:49:31;;;;;;;13.15;10.10;;;;;;;;;;5041956;28;20040;-72
2021/07/18 05:51:57;;;;;;;16.88;10.23;;;;;;;;;;5042653;28;21430;-72
2021/07/18 05:54:23;;;;;;;13.43;9.85;;;;;;;;;;5043352;28;20124;-72
2021/07/18 05:56:49;;;;;;;16.58;10.77;;;;;;;;;;5040384;28;20037;-72
2021/07/18 05:59:16;;;;;;;17.05;11.57;;;;;;;;;;5040098;28;20131;-72
2021/07/18 06:01:42;;;;;;;16.60;11.00;;;;;;;;;;5042145;28;20060;-72
2021/07/18 06:04:08;;;;;;;19.08;11.35;;;;;;;;;;5045285;28;20041;-72
2021/07/18 06:06:34;;;;;;;20.13;11.88;;;;;;;;;;5044657;28;20464;-72
2021/07/18 06:09:00;;;;;;;16.92;11.02;;;;;;;;;;5046526;28;20055;-72
2021/07/18 06:11:26;;;;;;;17.63;11.52;;;;;;;;;;5043223;28;20063;-72
2021/07/18 06:13:53;;;;;;;15.95;11.57;;;;;;;;;;5038178;28;20053;-74
2021/07/18 06:16:19;;;;;;;18.40;11.77;;;;;;;;;;5045599;28;20037;-73
2021/07/18 06:18:45;;;;;;;20.15;11.23;;;;;;;;;;5040627;28;20135;-72
2021/07/18 06:21:11;;;;;;;18.92;12.27;;;;;;;;;;5037025;28;20056;-74
2021/07/18 06:23:38;;;;;;;16.83;10.77;;;;;;;;;;5032224;28;22208;-73
2021/07/18 06:26:06;;;;;;;16.15;9.68;;;;;;;;;;5043355;28;20041;-73
2021/07/18 06:28:32;;;;;;;17.55;10.25;;;;;;;;;;5038447;28;20041;-73
2021/07/18 06:31:00;;;;;;;17.45;11.00;;;;;;;;;;5038699;28;20037;-74
2021/07/18 06:33:27;;;;;;;19.38;10.82;;;;;;;;;;5036726;28;20108;-73
2021/07/18 06:35:53;;;;;;;13.82;9.95;;;;;;;;;;5035843;28;20049;-73
2021/07/18 06:38:19;;;;;;;21.58;10.80;;;;;;;;;;5037319;28;20038;-73
2021/07/18 06:40:45;;;;;;;13.82;8.52;;;;;;;;;;5038877;28;20493;-73
2021/07/18 06:43:11;;;;;;;14.60;8.52;;;;;;;;;;5043042;28;20037;-73
2021/07/18 06:45:40;;;;;;;13.13;9.30;;;;;;;;;;5039714;28;20041;-73
2021/07/18 06:48:07;;;;;;;18.65;9.65;;;;;;;;;;5040379;28;20430;-73
2021/07/18 06:50:33;;;;;;;15.57;8.43;;;;;;;;;;5042900;28;20053;-73
2021/07/18 06:53:00;;;;;;;12.10;7.85;;;;;;;;;;5045478;28;20041;-73
2021/07/18 06:55:26;;;;;;;16.35;9.35;;;;;;;;;;5039639;28;20041;-74
2021/07/18 06:57:53;;;;;;;14.02;7.68;;;;;;;;;;5045813;28;20121;-73
2021/07/18 07:00:20;;;;;;;14.05;7.75;;;;;;;;;;5041807;28;20382;-73
2021/07/18 07:02:47;;;;;;;15.75;8.77;;;;;;;;;;5042533;28;20083;-73
2021/07/18 07:05:14;;;;;;;17.42;8.98;;;;;;;;;;5035838;28;20037;-73
2021/07/18 07:07:46;;;;;;;14.18;7.95;;;;;;;;;;5039881;28;20046;-73
2021/07/18 07:10:13;;;;;;;12.95;7.97;;;;;;;;;;5039472;28;20094;-73
2021/07/18 07:12:39;;;;;;;14.70;7.57;;;;;;;;;;5037067;28;20037;-74
2021/07/18 07:15:05;;;;;;;14.98;7.55;;;;;;;;;;5042754;28;20106;-74
2021/07/18 07:17:35;;;;;;;15.82;7.60;;;;;;;;;;5043712;28;20056;-74
2021/07/18 07:20:02;;;;;;;11.05;6.88;;;;;;;;;;5043371;28;20057;-64
2021/07/18 07:22:28;;;;;;;13.48;7.65;;;;;;;;;;5037841;28;20041;-65
2021/07/18 07:24:55;;;;;;;12.68;6.05;;;;;;;;;;5040869;28;20057;-65
2021/07/18 07:27:29;;;;;;;12.35;5.93;;;;;;;;;;5037477;28;20042;-64
2021/07/18 07:29:56;;;;;;;10.98;6.05;;;;;;;;;;5038032;28;20475;-65
2021/07/18 07:32:22;;;;;;;11.70;5.32;;;;;;;;;;5042718;28;20112;-65
2021/07/18 07:34:48;;;;;;;12.98;5.25;;;;;;;;;;5038312;28;20067;-65
2021/07/18 07:37:14;;;;;;;10.80;5.28;;;;;;;;;;5040728;28;20443;-65
2021/07/18 07:39:40;;;;;;;11.07;5.53;;;;;;;;;;5039777;28;20045;-65
2021/07/18 07:42:07;;;;;;;9.38;4.93;;;;;;;;;;5041953;28;20041;-65
2021/07/18 07:44:35;;;;;;;11.55;4.70;;;;;;;;;;5042917;28;20146;-65
2021/07/18 07:47:01;;;;;;;12.57;5.30;;;;;;;;;;5041599;28;20544;-65
2021/07/18 07:49:27;;;;;;;8.30;4.65;;;;;;;;;;5041166;28;20082;-65
2021/07/18 07:51:54;;;;;;;9.80;4.22;;;;;;;;;;5040955;28;20049;-65
2021/07/18 07:54:20;;;;;;;8.48;4.03;;;;;;;;;;5043994;28;20037;-64
2021/07/18 07:56:46;;;;;;;9.85;3.88;;;;;;;;;;5040886;28;20492;-66
2021/07/18 07:59:13;;;;;;;6.72;2.63;;;;;;;;;;5043447;28;20094;-66
2021/07/18 08:01:39;;;;;;;9.90;3.78;;;;;;;;;;5041715;28;20136;-65
2021/07/18 08:04:05;;;;;;;8.93;3.67;;;;;;;;;;5041265;28;20045;-65
2021/07/18 08:06:31;;;;;;;7.75;3.60;;;;;;;;;;5043119;28;20033;-65
2021/07/18 08:09:00;;;;;;;7.32;3.05;;;;;;;;;;5036499;28;20037;-65
2021/07/18 08:11:27;;;;;;;6.95;3.10;;;;;;;;;;5042721;28;20413;-65
2021/07/18 08:13:54;;;;;;;6.97;2.33;;;;;;;;;;5040153;28;20436;-65
2021/07/18 08:16:20;;;;;;;14.57;3.38;;;;;;;;;;5042172;28;20037;-65
2021/07/18 08:18:46;;;;;;;6.32;2.75;;;;;;;;;;5040157;28;20145;-65
2021/07/18 08:21:13;;;;;;;7.70;2.70;;;;;;;;;;5041962;28;20041;-65
2021/07/18 08:23:40;;;;;;;10.00;2.53;;;;;;;;;;5041275;28;20147;-65
2021/07/18 08:26:06;;;;;;;8.10;2.67;;;;;;;;;;5041848;28;20037;-65
2021/07/18 08:28:33;;;;;;;5.32;2.58;;;;;;;;;;5039806;28;20096;-65
2021/07/18 08:31:00;;;;;;;6.30;2.55;;;;;;;;;;5040386;28;20699;-65
2021/07/18 08:33:27;;;;;;;4.25;2.17;;;;;;;;;;5041204;28;20544;-65
2021/07/18 08:35:54;;;;;;;5.45;2.50;;;;;;;;;;5043042;28;20143;-65
2021/07/18 08:38:20;;;;;;;6.93;2.42;;;;;;;;;;5043264;28;20214;-65
2021/07/18 08:40:49;;;;;;;5.70;2.20;;;;;;;;;;5043709;28;20047;-65
2021/07/18 08:43:15;;;;;;;5.65;2.33;;;;;;;;;;5038427;28;20107;-65
2021/07/18 08:45:42;;;;;;;5.07;2.08;;;;;;;;;;5042961;28;20045;-65
2021/07/18 08:48:09;;;;;;;5.80;1.80;;;;;;;;;;5043499;28;20048;-65
2021/07/18 08:50:35;;;;;;;4.70;1.92;;;;;;;;;;5044701;28;20558;-65
2021/07/18 08:53:02;;;;;;;8.15;2.20;;;;;;;;;;5045019;28;20087;-65
2021/07/18 08:55:28;;;;;;;6.15;2.30;;;;;;;;;;5042512;28;20159;-65
2021/07/18 08:57:54;;;;;;;9.15;2.90;;;;;;;;;;5044174;28;20456;-65
2021/07/18 09:00:21;;;;;;;5.25;2.00;;;;;;;;;;5048883;28;20037;-64
2021/07/18 09:02:47;;;;;;;6.65;2.00;;;;;;;;;;5045732;28;20037;-65
2021/07/18 09:05:14;;;;;;;4.80;1.95;;;;;;;;;;5041947;28;20060;-64
2021/07/18 09:07:52;;;;;;;8.02;2.45;;;;;;;;;;5044583;28;20040;-65
2021/07/18 09:10:23;;;;;;;8.13;2.30;;;;;;;;;;5042162;28;20048;-65
2021/07/18 09:13:01;;;;;;;4.10;2.40;;;;;;;;;;5040121;28;20075;-65
2021/07/18 09:15:46;;;;;;;7.32;2.45;;;;;;;;;;5046189;28;20477;-65
2021/07/18 09:18:15;;;;;;;8.45;2.38;;;;;;;;;;5044027;28;20089;-65
2021/07/18 09:20:43;;;;;;;7.05;2.10;;;;;;;;;;5046924;28;20168;-65
2021/07/18 09:23:11;;;;;;;6.78;2.55;;;;;;;;;;5043577;28;20060;-65
2021/07/18 09:25:37;;;;;;;6.43;2.13;;;;;;;;;;5041547;28;20080;-65
2021/07/18 09:28:14;;;;;;;5.40;2.30;;;;;;;;;;5045856;28;20037;-65
2021/07/18 09:30:41;;;;;;;5.97;2.15;;;;;;;;;;5042318;28;20057;-65
2021/07/18 09:33:07;;;;;;;5.90;2.03;;;;;;;;;;5046281;28;20106;-65
2021/07/18 09:35:34;;;;;;;6.38;2.03;;;;;;;;;;5044725;28;20045;-65
2021/07/18 09:38:00;;;;;;;8.50;2.40;;;;;;;;;;5045928;28;20053;-65
2021/07/18 09:40:27;;;;;;;8.68;2.70;;;;;;;;;;5041616;28;20048;-65
2021/07/18 09:42:56;;;;;;;6.68;2.78;;;;;;;;;;5038576;28;20433;-64
2021/07/18 09:45:24;;;;;;;5.47;2.22;;;;;;;;;;5047177;28;20056;-65
2021/07/18 09:47:50;;;;;;;5.15;2.30;;;;;;;;;;5044616;28;20481;-65
2021/07/18 09:50:17;;;;;;;9.25;2.72;;;;;;;;;;5040055;28;20045;-65
2021/07/18 09:52:48;;;;;;;4.25;2.15;;;;;;;;;;5045483;28;20061;-65
2021/07/18 09:55:22;;;;;;;5.97;2.40;;;;;;;;;;5040521;28;20489;-65
2021/07/18 09:57:51;;;;;;;8.50;2.40;;;;;;;;;;5044688;28;20060;-65
2021/07/18 10:00:18;;;;;;;5.90;2.00;;;;;;;;;;5045743;28;20064;-65
2021/07/18 10:02:45;;;;;;;6.95;2.33;;;;;;;;;;5038990;28;20072;-65
2021/07/18 10:05:16;;;;;;;6.82;1.90;;;;;;;;;;5047029;28;20061;-64
2021/07/18 10:07:42;;;;;;;6.70;2.42;;;;;;;;;;5045764;28;20127;-64
2021/07/18 10:10:09;;;;;;;11.27;2.38;;;;;;;;;;5041047;28;20495;-64
2021/07/18 10:12:35;;;;;;;10.25;1.95;;;;;;;;;;5041303;28;20045;-64
2021/07/18 10:15:01;;;;;;;5.30;2.42;;;;;;;;;;5046574;28;20136;-64
2021/07/18 10:17:29;;;;;;;8.60;2.20;;;;;;;;;;5042694;28;20041;-64
2021/07/18 10:19:55;;;;;;;6.50;2.20;;;;;;;;;;5041277;28;20141;-65
2021/07/18 10:22:23;;;;;;;4.85;2.00;;;;;;;;;;5038924;28;20064;-64
2021/07/18 10:24:49;;;;;;;5.07;1.77;;;;;;;;;;5037473;28;20065;-64
2021/07/18 10:27:20;;;;;;;11.27;2.92;;;;;;;;;;5039457;28;20451;-64
2021/07/18 10:29:47;;;;;;;5.90;2.03;;;;;;;;;;5046558;28;20033;-64
2021/07/18 10:32:15;;;;;;;5.13;2.20;;;;;;;;;;5038625;28;20465;-64
2021/07/18 10:34:42;;;;;;;5.05;2.00;;;;;;;;;;5038571;28;20050;-64
2021/07/18 10:37:11;;;;;;;5.95;2.00;;;;;;;;;;5039686;28;20053;-65
2021/07/18 10:39:40;;;;;;;5.75;2.20;;;;;;;;;;5040931;28;20118;-64
2021/07/18 10:42:08;;;;;;;5.95;2.05;;;;;;;;;;5043449;28;20481;-64
2021/07/18 10:44:39;;;;;;;6.70;2.45;;;;;;;;;;5042006;28;20050;-64
2021/07/18 10:47:05;;;;;;;6.55;2.08;;;;;;;;;;5044687;28;20052;-64
2021/07/18 10:49:45;;;;;;;7.55;2.28;;;;;;;;;;5036835;28;20100;-64
2021/07/18 10:52:12;;;;;;;5.00;1.58;;;;;;;;;;5042809;28;20042;-65
2021/07/18 10:54:43;;;;;;;8.82;2.35;;;;;;;;;;5038752;28;20133;-64
2021/07/18 10:57:21;;;;;;;5.53;2.10;;;;;;;;;;5040792;28;20091;-64
2021/07/18 10:59:47;;;;;;;9.20;2.28;;;;;;;;;;5042376;28;20041;-64
2021/07/18 11:02:16;;;;;;;9.52;2.20;;;;;;;;;;5040830;28;20062;-64
2021/07/18 11:04:45;;;;;;;6.05;2.13;;;;;;;;;;5041192;28;20053;-64
2021/07/18 11:07:30;;;;;;;8.35;2.15;;;;;;;;;;5042526;28;20060;-64
2021/07/18 11:09:59;;;;;;;8.27;2.00;;;;;;;;;;5045241;28;20048;-64
2021/07/18 11:12:26;;;;;;;9.80;2.45;;;;;;;;;;5041435;28;20049;-64
2021/07/18 11:14:53;;;;;;;8.85;2.10;;;;;;;;;;5034784;28;20095;-64
2021/07/18 11:17:27;;;;;;;12.27;2.67;;;;;;;;;;5039981;28;20045;-64
2021/07/18 11:19:55;;;;;;;8.82;2.65;;;;;;;;;;5032170;28;20057;-64
2021/07/18 11:22:41;;;;;;;13.07;2.53;;;;;;;;;;5043985;28;20049;-64
2021/07/18 11:25:08;;;;;;;8.73;2.58;;;;;;;;;;5040210;28;20386;-64
2021/07/18 11:27:35;;;;;;;8.88;2.10;;;;;;;;;;5042602;28;20029;-64
2021/07/18 11:30:04;;;;;;;8.43;2.53;;;;;;;;;;5036317;28;20041;-64
2021/07/18 11:32:32;;;;;;;8.75;2.75;;;;;;;;;;5038117;28;20045;-64
2021/07/18 11:34:59;;;;;;;7.45;2.58;;;;;;;;;;5039411;28;20045;-64
2021/07/18 11:37:27;;;;;;;7.63;1.90;;;;;;;;;;5036174;28;20038;-64
2021/07/18 11:40:00;;;;;;;8.65;2.42;;;;;;;;;;5043896;28;20430;-64
2021/07/18 11:42:27;;;;;;;7.45;2.58;;;;;;;;;;5045706;28;20388;-64
2021/07/18 11:44:53;;;;;;;13.90;2.88;;;;;;;;;;5040457;28;20061;-64
2021/07/18 11:47:23;;;;;;;9.35;3.15;;;;;;;;;;5042780;28;20487;-64
2021/07/18 11:49:51;;;;;;;9.43;2.50;;;;;;;;;;5037193;28;20156;-64
2021/07/18 11:52:18;;;;;;;11.32;2.50;;;;;;;;;;5037174;28;20045;-65
2021/07/18 11:54:45;;;;;;;12.55;2.97;;;;;;;;;;5035139;28;20107;-64
2021/07/18 11:57:14;;;;;;;8.65;2.67;;;;;;;;;;5040380;28;20045;-64
2021/07/18 11:59:41;;;;;;;14.48;2.80;;;;;;;;;;5041840;28;20041;-65
2021/07/18 12:02:08;;;;;;;11.98;3.10;;;;;;;;;;5035748;28;20041;-65
2021/07/18 12:04:34;;;;;;;8.43;2.72;;;;;;;;;;5038912;28;20451;-64
2021/07/18 12:07:02;;;;;;;8.90;3.17;;;;;;;;;;5035879;28;20124;-64
2021/07/18 12:09:30;;;;;;;7.18;2.50;;;;;;;;;;5044064;28;20049;-65
2021/07/18 12:11:57;;;;;;;9.30;2.70;;;;;;;;;;5036302;28;20049;-64
2021/07/18 12:14:25;;;;;;;9.30;2.80;;;;;;;;;;5043353;28;20049;-64
2021/07/18 12:16:52;;;;;;;11.48;2.92;;;;;;;;;;5040947;28;20478;-64
2021/07/18 12:19:19;;;;;;;9.63;2.55;;;;;;;;;;5038544;28;20176;-64
2021/07/18 12:21:46;;;;;;;7.35;2.20;;;;;;;;;;5045039;28;20056;-64
2021/07/18 12:24:21;;;;;;;10.13;2.80;;;;;;;;;;5043080;28;20500;-64
2021/07/18 12:26:49;;;;;;;13.52;3.00;;;;;;;;;;5044049;28;20041;-64
2021/07/18 12:29:16;;;;;;;10.27;3.38;;;;;;;;;;5038854;28;20080;-64
2021/07/18 12:31:43;;;;;;;11.45;3.00;;;;;;;;;;5044156;28;20404;-64
2021/07/18 12:34:11;;;;;;;11.93;3.50;;;;;;;;;;5042559;28;20045;-64
2021/07/18 12:37:00;;;;;;;10.38;2.80;;;;;;;;;;5039134;28;20150;-64
2021/07/18 12:39:28;;;;;;;8.73;2.67;;;;;;;;;;5046617;28;20044;-65
2021/07/18 12:41:55;;;;;;;9.15;2.70;;;;;;;;;;5042275;28;20048;-65
2021/07/18 12:44:22;;;;;;;7.93;2.85;;;;;;;;;;5043323;28;20049;-64
2021/07/18 12:46:48;;;;;;;9.80;2.70;;;;;;;;;;5044456;28;20037;-64
2021/07/18 12:49:15;;;;;;;9.95;2.50;;;;;;;;;;5048395;28;20049;-64
2021/07/18 12:51:41;;;;;;;10.82;2.90;;;;;;;;;;5038509;28;20049;-64
2021/07/18 12:54:08;;;;;;;8.52;2.50;;;;;;;;;;5042683;28;20044;-64
2021/07/18 12:56:35;;;;;;;9.02;2.78;;;;;;;;;;5042677;28;20110;-64
2021/07/18 12:59:01;;;;;;;5.80;2.35;;;;;;;;;;5042369;28;20858;-64
2021/07/18 13:01:28;;;;;;;8.48;2.65;;;;;;;;;;5043205;28;20033;-64
2021/07/18 13:04:02;;;;;;;5.88;2.45;;;;;;;;;;5039612;28;20087;-64
2021/07/18 13:06:28;;;;;;;5.63;2.40;;;;;;;;;;5041650;28;20431;-64
2021/07/18 13:08:55;;;;;;;8.02;2.20;;;;;;;;;;5047779;28;20044;-64
2021/07/18 13:11:32;;;;;;;13.77;2.80;;;;;;;;;;5042828;28;20057;-65
2021/07/18 13:13:58;;;;;;;9.75;3.17;;;;;;;;;;5045037;28;20075;-64
2021/07/18 13:16:33;;;;;;;9.38;2.60;;;;;;;;;;5041978;28;20057;-64
2021/07/18 13:19:07;;;;;;;9.88;2.75;;;;;;;;;;5043438;28;20037;-64
2021/07/18 13:21:33;;;;;;;6.38;2.20;;;;;;;;;;5043593;28;20508;-64
2021/07/18 13:23:59;;;;;;;6.82;2.63;;;;;;;;;;5052226;28;20138;-64
2021/07/18 13:26:36;;;;;;;7.90;2.80;;;;;;;;;;5043895;28;20067;-64
2021/07/18 13:29:12;;;;;;;6.47;2.63;;;;;;;;;;5042987;28;20065;-64
2021/07/18 13:31:38;;;;;;;10.35;3.33;;;;;;;;;;5041057;28;20053;-64
2021/07/18 13:34:04;;;;;;;7.50;2.78;;;;;;;;;;5046431;28;20044;-65
2021/07/18 13:36:31;;;;;;;7.47;2.67;;;;;;;;;;5047204;28;20041;-65
2021/07/18 13:39:09;;;;;;;9.27;3.25;;;;;;;;;;5047192;28;20048;-64
2021/07/18 13:41:35;;;;;;;7.07;2.55;;;;;;;;;;5047650;28;20052;-64
2021/07/18 13:44:02;;;;;;;7.80;2.80;;;;;;;;;;5046589;28;20056;-64
2021/07/18 13:46:30;;;;;;;8.38;2.42;;;;;;;;;;5047198;28;20190;-64
2021/07/18 13:48:56;;;;;;;6.30;2.38;;;;;;;;;;5044723;28;20075;-64
2021/07/18 13:51:29;;;;;;;6.93;2.10;;;;;;;;;;5045138;28;20048;-64
2021/07/18 13:53:55;;;;;;;4.40;2.05;;;;;;;;;;5040227;28;20144;-64
2021/07/18 13:56:21;;;;;;;6.32;2.35;;;;;;;;;;5044408;28;20072;-65
2021/07/18 13:58:48;;;;;;;8.65;2.75;;;;;;;;;;5044388;28;20041;-64
2021/07/18 14:01:14;;;;;;;10.30;2.70;;;;;;;;;;5040527;28;20566;-64
2021/07/18 14:03:40;;;;;;;7.57;2.47;;;;;;;;;;5040536;28;20041;-64
2021/07/18 14:06:07;;;;;;;8.63;2.55;;;;;;;;;;5038293;28;20547;-64
2021/07/18 14:08:34;;;;;;;4.88;2.10;;;;;;;;;;5042257;28;20092;-64
2021/07/18 14:11:00;;;;;;;5.57;2.55;;;;;;;;;;5039618;28;20468;-64
2021/07/18 14:13:26;;;;;;;5.65;2.58;;;;;;;;;;5044346;28;20438;-64
2021/07/18 14:15:52;;;;;;;6.03;1.90;;;;;;;;;;5043693;28;20404;-64
2021/07/18 14:18:18;;;;;;;6.30;2.67;;;;;;;;;;5043080;28;20111;-64
2021/07/18 14:20:45;;;;;;;5.03;1.98;;;;;;;;;;5039625;28;20457;-64
2021/07/18 14:23:12;;;;;;;7.72;2.20;;;;;;;;;;5040694;28;20065;-64
2021/07/18 14:25:39;;;;;;;6.60;2.17;;;;;;;;;;5041963;28;20045;-64
2021/07/18 14:28:08;;;;;;;6.85;2.33;;;;;;;;;;5039944;28;20128;-64
2021/07/18 14:30:34;;;;;;;7.93;2.30;;;;;;;;;;5041031;28;20040;-65
2021/07/18 14:33:01;;;;;;;8.85;2.33;;;;;;;;;;5040678;28;20033;-64